Time;durP1;ratioP1;P1;durP2;ratioP2;P2;SDS_P1;SDS_P2;PMS_P1;PMS_P2;Temp;Humidity;BMP_temperature;BMP_pressure;BME280_temperature;BME280_humidity;BME280_pressure;Samples;Min_cycle;Max_cycle;Signal;HPM_P1;HPM_P2
2022/03/02 00:00:52;;;;;;;;;;;11.30;99.90;;;;;;5056705;28;19916;-78
2022/03/02 00:03:17;;;;;;;;;;;11.30;99.90;;;;;;5056309;28;19909;-78
2022/03/02 00:05:43;;;;;;;;;;;11.50;99.90;;;;;;5056318;28;19913;-77
2022/03/02 00:08:08;;;;;;;;;;;11.70;99.90;;;;;;5056321;28;19916;-78
2022/03/02 00:10:34;;;;;;;;;;;11.80;99.90;;;;;;5056638;28;19908;-78
2022/03/02 00:13:00;;;;;;;;;;;11.70;99.90;;;;;;5056397;28;19909;-77
2022/03/02 00:15:25;;;;;;;;;;;11.80;99.90;;;;;;5056204;28;20399;-77
2022/03/02 00:17:51;;;;;;;;;;;11.70;99.90;;;;;;5056161;28;19962;-77
2022/03/02 00:20:17;;;;;;;;;;;11.70;99.90;;;;;;5071553;28;19916;-77
2022/03/02 00:22:42;;;;;;;;;;;11.70;99.90;;;;;;5056287;28;20417;-77
2022/03/02 00:25:08;;;;;;;;;;;11.60;99.90;;;;;;5056212;28;20011;-77
2022/03/02 00:27:34;;;;;;;;;;;11.60;99.90;;;;;;5054918;28;19916;-77
2022/03/02 00:30:00;;;;;;;;;;;11.60;99.90;;;;;;5056058;28;20285;-78
2022/03/02 00:32:26;;;;;;;;;;;11.60;99.90;;;;;;5055905;28;19909;-77
2022/03/02 00:34:51;;;;;;;;;;;11.60;99.90;;;;;;5056315;28;19952;-78
2022/03/02 00:37:17;;;;;;;;;;;11.60;99.90;;;;;;5055619;28;19931;-77
2022/03/02 00:39:43;;;;;;;;;;;11.40;99.90;;;;;;5054455;28;19919;-77
2022/03/02 00:42:09;;;;;;;;;;;11.60;99.90;;;;;;5055932;28;20313;-77
2022/03/02 00:44:35;;;;;;;;;;;11.50;99.90;;;;;;5054296;28;19917;-77
2022/03/02 00:47:01;;;;;;;;;;;11.40;99.90;;;;;;5055644;28;19909;-78
2022/03/02 00:49:27;;;;;;;;;;;11.40;99.90;;;;;;5055608;28;19909;-77
2022/03/02 00:51:54;;;;;;;;;;;11.30;99.90;;;;;;5054272;28;19912;-77
2022/03/02 00:54:19;;;;;;;;;;;11.40;99.90;;;;;;5055641;28;19916;-77
2022/03/02 00:56:45;;;;;;;;;;;11.40;99.90;;;;;;5054135;28;19909;-77
2022/03/02 00:59:11;;;;;;;;;;;11.40;99.90;;;;;;5055761;28;19909;-77
2022/03/02 01:01:36;;;;;;;;;;;11.50;99.90;;;;;;5054071;28;20011;-77
2022/03/02 01:04:02;;;;;;;;;;;11.50;99.90;;;;;;5055450;28;19913;-77
2022/03/02 01:06:27;;;;;;;;;;;11.40;99.90;;;;;;5055452;28;20300;-77
2022/03/02 01:08:53;;;;;;;;;;;11.40;99.90;;;;;;5055151;28;20007;-77
2022/03/02 01:11:18;;;;;;;;;;;11.40;99.90;;;;;;5055149;28;20000;-78
2022/03/02 01:13:44;;;;;;;;;;;11.40;99.90;;;;;;5053821;28;20277;-77
2022/03/02 01:16:10;;;;;;;;;;;11.40;99.90;;;;;;5055044;28;19970;-78
2022/03/02 01:18:35;;;;;;;;;;;11.40;99.90;;;;;;5054972;28;19982;-77
2022/03/02 01:21:02;;;;;;;;;;;11.30;99.90;;;;;;5053641;28;19915;-77
2022/03/02 01:23:27;;;;;;;;;;;11.30;99.90;;;;;;5053550;28;19916;-77
2022/03/02 01:25:53;;;;;;;;;;;11.30;99.90;;;;;;5054885;28;19913;-77
2022/03/02 01:28:19;;;;;;;;;;;11.20;99.90;;;;;;5054868;28;19991;-77
2022/03/02 01:30:44;;;;;;;;;;;11.20;99.90;;;;;;5054834;28;19971;-77
2022/03/02 01:33:10;;;;;;;;;;;11.10;99.90;;;;;;5054804;28;20369;-77
2022/03/02 01:35:35;;;;;;;;;;;11.10;99.90;;;;;;5054997;28;19995;-77
2022/03/02 01:38:01;;;;;;;;;;;11.00;99.90;;;;;;5053940;28;20389;-77
2022/03/02 01:40:27;;;;;;;;;;;11.00;99.90;;;;;;5054648;28;19913;-77
2022/03/02 01:42:52;;;;;;;;;;;11.00;99.90;;;;;;5054824;28;19966;-77
2022/03/02 01:45:18;;;;;;;;;;;11.10;99.90;;;;;;5053207;28;19975;-77
2022/03/02 01:47:44;;;;;;;;;;;11.10;99.90;;;;;;5053182;28;20400;-77
2022/03/02 01:50:10;;;;;;;;;;;11.00;99.90;;;;;;5054387;28;19909;-77
2022/03/02 01:52:36;;;;;;;;;;;11.10;99.90;;;;;;5054411;28;19908;-77
2022/03/02 01:55:02;;;;;;;;;;;11.10;99.90;;;;;;5054424;28;19915;-77
2022/03/02 01:57:28;;;;;;;;;;;11.20;99.90;;;;;;5054301;28;19909;-77
2022/03/02 01:59:53;;;;;;;;;;;11.10;99.90;;;;;;5054266;28;19915;-77
2022/03/02 02:02:19;;;;;;;;;;;11.20;99.90;;;;;;5054217;28;19932;-78
2022/03/02 02:04:45;;;;;;;;;;;11.10;99.90;;;;;;5054140;28;19913;-77
2022/03/02 02:07:11;;;;;;;;;;;11.10;99.90;;;;;;5054163;28;19952;-77
2022/03/02 02:09:36;;;;;;;;;;;11.10;99.90;;;;;;5054096;28;20280;-77
2022/03/02 02:12:02;;;;;;;;;;;11.10;99.90;;;;;;5054050;28;19912;-77
2022/03/02 02:14:27;;;;;;;;;;;11.10;99.90;;;;;;5054061;28;19916;-77
2022/03/02 02:16:53;;;;;;;;;;;11.00;99.90;;;;;;5052614;28;20365;-77
2022/03/02 02:19:18;;;;;;;;;;;11.00;99.90;;;;;;5052677;28;19916;-78
2022/03/02 02:21:46;;;;;;;;;;;10.90;99.90;;;;;;5052594;28;19964;-77
2022/03/02 02:24:12;;;;;;;;;;;10.90;99.90;;;;;;5052500;28;19913;-77
2022/03/02 02:26:38;;;;;;;;;;;10.90;99.90;;;;;;5054101;28;20000;-77
2022/03/02 02:29:04;;;;;;;;;;;10.90;99.90;;;;;;5054124;28;19963;-77
2022/03/02 02:31:30;;;;;;;;;;;10.90;99.90;;;;;;5053801;28;19909;-77
2022/03/02 02:33:56;;;;;;;;;;;10.80;99.90;;;;;;5054004;28;19915;-77
2022/03/02 02:36:22;;;;;;;;;;;10.90;99.90;;;;;;5053505;28;19983;-77
2022/03/02 02:38:48;;;;;;;;;;;10.90;99.90;;;;;;5054051;28;19915;-77
2022/03/02 02:41:16;;;;;;;;;;;10.80;99.90;;;;;;5053651;28;19908;-77
2022/03/02 02:43:42;;;;;;;;;;;10.80;99.90;;;;;;5053750;28;19920;-77
2022/03/02 02:46:08;;;;;;;;;;;10.80;99.90;;;;;;5053749;28;19916;-77
2022/03/02 02:48:34;;;;;;;;;;;10.80;99.90;;;;;;5053347;28;19908;-77
2022/03/02 02:51:00;;;;;;;;;;;10.70;99.90;;;;;;5053227;28;19958;-77
2022/03/02 02:53:25;;;;;;;;;;;10.80;99.90;;;;;;5052211;28;20284;-77
2022/03/02 02:55:52;;;;;;;;;;;10.70;99.90;;;;;;5053728;28;19908;-77
2022/03/02 02:58:18;;;;;;;;;;;10.70;99.90;;;;;;5052269;28;20254;-77
2022/03/02 03:00:45;;;;;;;;;;;10.70;99.90;;;;;;5053712;28;19917;-77
2022/03/02 03:03:10;;;;;;;;;;;10.70;99.90;;;;;;5053428;28;19952;-77
2022/03/02 03:05:36;;;;;;;;;;;10.60;99.90;;;;;;5053385;28;19967;-78
2022/03/02 03:08:03;;;;;;;;;;;10.50;99.90;;;;;;5053549;28;20281;-77
2022/03/02 03:10:30;;;;;;;;;;;10.50;99.90;;;;;;5053605;28;20374;-77
2022/03/02 03:12:55;;;;;;;;;;;10.70;99.90;;;;;;5053406;28;20361;-77
2022/03/02 03:15:21;;;;;;;;;;;10.80;99.90;;;;;;5053558;28;19908;-78
2022/03/02 03:17:47;;;;;;;;;;;10.90;99.90;;;;;;5053334;28;19916;-77
2022/03/02 03:20:14;;;;;;;;;;;10.80;99.90;;;;;;5053303;28;19995;-77
2022/03/02 03:22:40;;;;;;;;;;;10.80;99.90;;;;;;5053301;28;19908;-78
2022/03/02 03:25:07;;;;;;;;;;;10.80;99.90;;;;;;5053175;28;19962;-78
2022/03/02 03:27:33;;;;;;;;;;;10.90;99.90;;;;;;5053265;28;19932;-77
2022/03/02 03:29:59;;;;;;;;;;;11.00;99.90;;;;;;5053211;28;19959;-78
2022/03/02 03:32:26;;;;;;;;;;;11.00;99.90;;;;;;5053203;28;19912;-77
2022/03/02 03:34:51;;;;;;;;;;;10.90;99.90;;;;;;5053140;28;19999;-77
2022/03/02 03:37:17;;;;;;;;;;;10.90;99.90;;;;;;5052830;28;19979;-77
2022/03/02 03:39:42;;;;;;;;;;;11.00;99.90;;;;;;5053047;28;19913;-77
2022/03/02 03:42:09;;;;;;;;;;;11.00;99.90;;;;;;5053055;28;19962;-78
2022/03/02 03:44:34;;;;;;;;;;;11.00;99.90;;;;;;5053052;28;19955;-77
2022/03/02 03:47:00;;;;;;;;;;;11.00;99.90;;;;;;5051690;28;19951;-78
2022/03/02 03:49:26;;;;;;;;;;;11.00;99.90;;;;;;5052995;28;19909;-77
2022/03/02 03:51:51;;;;;;;;;;;11.10;99.90;;;;;;5053325;28;19958;-77
2022/03/02 03:54:17;;;;;;;;;;;11.10;99.90;;;;;;5051568;28;19995;-77
2022/03/02 03:56:42;;;;;;;;;;;11.00;99.90;;;;;;5053032;28;19971;-77
2022/03/02 03:59:08;;;;;;;;;;;10.90;99.90;;;;;;5052905;28;20362;-77
2022/03/02 04:01:33;;;;;;;;;;;11.00;99.90;;;;;;5055235;28;19999;-77
2022/03/02 04:03:59;;;;;;;;;;;10.90;99.90;;;;;;5056410;28;19956;-78
2022/03/02 04:06:24;;;;;;;;;;;11.00;99.90;;;;;;5056095;28;19909;-77
2022/03/02 04:08:50;;;;;;;;;;;11.10;99.90;;;;;;5055081;28;19931;-78
2022/03/02 04:11:16;;;;;;;;;;;11.10;99.90;;;;;;5056347;28;19909;-77
2022/03/02 04:13:41;;;;;;;;;;;11.20;99.90;;;;;;5056420;28;19959;-77
2022/03/02 04:16:07;;;;;;;;;;;11.30;99.90;;;;;;5056423;28;19909;-78
2022/03/02 04:18:33;;;;;;;;;;;11.20;99.90;;;;;;5056259;28;20503;-78
2022/03/02 04:20:59;;;;;;;;;;;11.00;99.90;;;;;;5054909;28;19909;-77
2022/03/02 04:23:25;;;;;;;;;;;10.90;99.90;;;;;;5056422;28;20384;-78
2022/03/02 04:25:50;;;;;;;;;;;10.80;99.90;;;;;;5054825;28;20384;-77
2022/03/02 04:28:16;;;;;;;;;;;10.80;99.90;;;;;;5056179;28;19910;-77
2022/03/02 04:30:42;;;;;;;;;;;10.80;99.90;;;;;;5055997;28;19918;-77
2022/03/02 04:33:07;;;;;;;;;;;10.80;99.90;;;;;;5056194;28;19917;-77
2022/03/02 04:35:34;;;;;;;;;;;10.80;99.90;;;;;;5055905;28;19913;-77
2022/03/02 04:38:00;;;;;;;;;;;10.80;99.90;;;;;;5055544;28;20432;-77
2022/03/02 04:40:25;;;;;;;;;;;10.70;99.90;;;;;;5056074;28;19947;-77
2022/03/02 04:42:51;;;;;;;;;;;10.70;99.90;;;;;;5055914;28;19909;-77
2022/03/02 04:45:17;;;;;;;;;;;10.60;99.90;;;;;;5055642;28;19924;-77
2022/03/02 04:47:43;;;;;;;;;;;10.50;99.90;;;;;;5055888;28;19924;-78
2022/03/02 04:50:10;;;;;;;;;;;10.50;99.90;;;;;;5055747;28;19962;-77
2022/03/02 04:52:36;;;;;;;;;;;10.70;99.90;;;;;;5055596;28;19916;-77
2022/03/02 04:55:07;;;;;;;;;;;10.80;99.90;;;;;;5055868;28;19912;-77
2022/03/02 04:57:33;;;;;;;;;;;10.70;99.90;;;;;;5055630;28;19920;-77
2022/03/02 04:59:59;;;;;;;;;;;10.80;99.90;;;;;;5055457;28;19912;-78
2022/03/02 05:02:24;;;;;;;;;;;10.80;99.90;;;;;;5055418;28;19909;-77
2022/03/02 05:04:50;;;;;;;;;;;10.70;99.90;;;;;;5055240;28;20425;-77
2022/03/02 05:07:16;;;;;;;;;;;10.80;99.90;;;;;;5055692;28;19908;-77
2022/03/02 05:09:42;;;;;;;;;;;10.80;99.90;;;;;;5055450;28;20381;-78
2022/03/02 05:12:07;;;;;;;;;;;10.80;99.90;;;;;;5054889;28;19909;-77
2022/03/02 05:14:33;;;;;;;;;;;10.70;99.90;;;;;;5053878;28;19917;-77
2022/03/02 05:16:59;;;;;;;;;;;10.70;99.90;;;;;;5055132;28;19982;-77
2022/03/02 05:19:25;;;;;;;;;;;10.70;99.90;;;;;;5053763;28;19913;-77
2022/03/02 05:21:50;;;;;;;;;;;10.60;99.90;;;;;;5055018;28;19909;-77
2022/03/02 05:24:16;;;;;;;;;;;10.50;99.90;;;;;;5055425;28;19995;-77
2022/03/02 05:26:42;;;;;;;;;;;10.50;99.90;;;;;;5054896;28;20392;-77
2022/03/02 05:29:09;;;;;;;;;;;10.50;99.90;;;;;;5054041;28;20385;-77
2022/03/02 05:31:35;;;;;;;;;;;10.50;99.90;;;;;;5055003;28;19915;-77
2022/03/02 05:34:01;;;;;;;;;;;10.40;99.90;;;;;;5054983;28;20011;-77
2022/03/02 05:36:27;;;;;;;;;;;10.40;99.90;;;;;;5054636;28;19917;-77
2022/03/02 05:38:53;;;;;;;;;;;10.40;99.90;;;;;;5054675;28;19920;-77
2022/03/02 05:41:20;;;;;;;;;;;10.40;99.90;;;;;;5053310;28;19920;-77
2022/03/02 05:43:45;;;;;;;;;;;10.30;99.90;;;;;;5054654;28;19909;-77
2022/03/02 05:46:11;;;;;;;;;;;10.30;99.90;;;;;;5054637;28;19909;-77
2022/03/02 05:48:37;;;;;;;;;;;10.20;99.90;;;;;;5054567;28;19916;-77
2022/03/02 05:51:03;;;;;;;;;;;10.30;99.90;;;;;;5054479;28;19932;-77
2022/03/02 05:53:28;;;;;;;;;;;10.20;99.90;;;;;;5054390;28;19909;-78
2022/03/02 05:55:54;;;;;;;;;;;10.20;99.90;;;;;;5054591;28;19909;-77
2022/03/02 05:58:19;;;;;;;;;;;10.20;99.90;;;;;;5054436;28;20285;-77
2022/03/02 06:00:45;;;;;;;;;;;10.20;99.90;;;;;;5054473;28;19992;-77
2022/03/02 06:03:11;;;;;;;;;;;10.20;99.90;;;;;;5054570;28;19913;-77
2022/03/02 06:05:36;;;;;;;;;;;10.20;99.90;;;;;;5054093;28;19948;-77
2022/03/02 06:08:02;;;;;;;;;;;10.20;99.90;;;;;;5054451;28;19909;-78
2022/03/02 06:10:28;;;;;;;;;;;10.10;99.90;;;;;;5054375;28;20289;-77
2022/03/02 06:12:53;;;;;;;;;;;10.10;99.90;;;;;;5054101;28;20003;-77
2022/03/02 06:15:19;;;;;;;;;;;10.10;99.90;;;;;;5052756;28;20323;-77
2022/03/02 06:17:45;;;;;;;;;;;10.00;99.90;;;;;;5052729;28;19952;-77
2022/03/02 06:20:11;;;;;;;;;;;9.90;99.90;;;;;;5053948;28;19908;-77
2022/03/02 06:22:37;;;;;;;;;;;9.90;99.90;;;;;;5053829;28;19913;-77
2022/03/02 06:25:03;;;;;;;;;;;9.90;99.90;;;;;;5052955;28;19913;-77
2022/03/02 06:27:29;;;;;;;;;;;9.90;99.90;;;;;;5054100;28;19909;-77
2022/03/02 06:29:54;;;;;;;;;;;10.10;99.90;;;;;;5053861;28;19909;-78
2022/03/02 06:32:20;;;;;;;;;;;9.90;99.90;;;;;;5054312;28;20376;-77
2022/03/02 06:34:46;;;;;;;;;;;10.00;99.90;;;;;;5053712;28;19974;-77
2022/03/02 06:37:13;;;;;;;;;;;10.00;99.90;;;;;;5053534;28;19924;-77
2022/03/02 06:39:38;;;;;;;;;;;10.10;99.90;;;;;;5053814;28;19991;-77
2022/03/02 06:42:11;;;;;;;;;;;10.10;99.90;;;;;;5053668;28;19909;-77
2022/03/02 06:44:43;;;;;;;;;;;10.10;99.90;;;;;;5051999;28;20377;-77
2022/03/02 06:47:13;;;;;;;;;;;10.10;99.90;;;;;;5053595;28;19912;-77
2022/03/02 06:49:38;;;;;;;;;;;10.00;99.90;;;;;;5053636;28;19916;-77
2022/03/02 06:52:04;;;;;;;;;;;10.00;99.90;;;;;;5053658;28;19909;-77
2022/03/02 06:54:31;;;;;;;;;;;9.90;99.90;;;;;;5053532;28;19916;-77
2022/03/02 06:56:58;;;;;;;;;;;10.00;99.90;;;;;;5052157;28;20452;-77
2022/03/02 06:59:30;;;;;;;;;;;10.00;99.90;;;;;;5053344;28;20381;-77
2022/03/02 07:01:58;;;;;;;;;;;9.90;99.90;;;;;;5053425;28;19909;-77
2022/03/02 07:04:24;;;;;;;;;;;10.00;99.90;;;;;;5051959;28;19916;-77
2022/03/02 07:06:51;;;;;;;;;;;10.00;99.90;;;;;;5053359;28;19916;-78
2022/03/02 07:09:18;;;;;;;;;;;10.00;99.90;;;;;;5053541;28;20003;-77
2022/03/02 07:11:43;;;;;;;;;;;10.00;99.90;;;;;;5053140;28;19932;-77
2022/03/02 07:14:12;;;;;;;;;;;10.00;99.90;;;;;;5053410;28;20292;-77
2022/03/02 07:16:40;;;;;;;;;;;10.00;99.90;;;;;;5052006;28;19992;-78
2022/03/02 07:19:06;;;;;;;;;;;10.00;99.90;;;;;;5053289;28;19999;-77
2022/03/02 07:21:33;;;;;;;;;;;10.00;99.90;;;;;;5053217;28;19994;-78
2022/03/02 07:24:04;;;;;;;;;;;9.90;99.90;;;;;;5053154;28;19913;-77
2022/03/02 07:26:30;;;;;;;;;;;9.90;99.90;;;;;;5053284;28;19959;-77
2022/03/02 07:28:56;;;;;;;;;;;10.00;99.90;;;;;;5051928;28;19913;-77
2022/03/02 07:31:22;;;;;;;;;;;10.00;99.90;;;;;;5053386;28;20367;-77
2022/03/02 07:33:50;;;;;;;;;;;10.00;99.90;;;;;;5053384;28;19988;-77
2022/03/02 07:36:18;;;;;;;;;;;10.00;99.90;;;;;;5054980;28;19916;-77
2022/03/02 07:38:43;;;;;;;;;;;10.00;99.90;;;;;;5057018;28;20365;-77
2022/03/02 07:41:09;;;;;;;;;;;10.10;99.90;;;;;;5056875;28;19962;-77
2022/03/02 07:43:36;;;;;;;;;;;10.10;99.90;;;;;;5056803;28;20365;-77
2022/03/02 07:46:03;;;;;;;;;;;10.00;99.90;;;;;;5056822;28;19934;-77
2022/03/02 07:48:29;;;;;;;;;;;10.00;99.90;;;;;;5056816;28;20435;-77
2022/03/02 07:50:54;;;;;;;;;;;10.10;99.90;;;;;;5056730;28;19955;-77
2022/03/02 07:53:21;;;;;;;;;;;10.10;99.90;;;;;;5055303;28;20003;-77
2022/03/02 07:55:47;;;;;;;;;;;10.10;99.90;;;;;;5056607;28;19909;-77
2022/03/02 07:58:13;;;;;;;;;;;10.20;99.90;;;;;;5056611;28;19909;-77
2022/03/02 08:00:38;;;;;;;;;;;10.20;99.90;;;;;;5056536;28;19982;-77
2022/03/02 08:03:06;;;;;;;;;;;10.30;99.90;;;;;;5056645;28;19909;-77
2022/03/02 08:05:32;;;;;;;;;;;10.30;99.90;;;;;;5056644;28;19920;-77
2022/03/02 08:07:59;;;;;;;;;;;10.30;99.90;;;;;;5056431;28;19909;-78
2022/03/02 08:10:26;;;;;;;;;;;10.40;99.90;;;;;;5056344;28;19913;-77
2022/03/02 08:12:52;;;;;;;;;;;10.40;99.90;;;;;;5056685;28;19908;-77
2022/03/02 08:15:18;;;;;;;;;;;10.40;99.90;;;;;;5055035;28;19952;-77
2022/03/02 08:17:44;;;;;;;;;;;10.40;99.90;;;;;;5056263;28;20388;-77
2022/03/02 08:20:10;;;;;;;;;;;10.40;99.90;;;;;;5056192;28;19915;-77
2022/03/02 08:22:38;;;;;;;;;;;10.50;99.90;;;;;;5056188;28;19909;-77
2022/03/02 08:25:12;;;;;;;;;;;10.60;99.90;;;;;;5056071;28;19917;-77
2022/03/02 08:27:43;;;;;;;;;;;10.60;99.90;;;;;;5054548;28;19913;-78
2022/03/02 08:30:10;;;;;;;;;;;10.70;99.90;;;;;;5071179;28;19909;-78
2022/03/02 08:32:37;;;;;;;;;;;10.70;99.90;;;;;;5055982;28;19931;-78
2022/03/02 08:35:03;;;;;;;;;;;10.90;99.90;;;;;;5056206;28;19938;-78
2022/03/02 08:37:30;;;;;;;;;;;11.00;99.90;;;;;;5055679;28;19956;-77
2022/03/02 08:39:56;;;;;;;;;;;10.90;99.90;;;;;;5055900;28;19916;-77
2022/03/02 08:42:22;;;;;;;;;;;11.00;99.90;;;;;;5055844;28;19955;-78
2022/03/02 08:44:48;;;;;;;;;;;11.10;99.90;;;;;;5055968;28;19920;-77
2022/03/02 08:47:14;;;;;;;;;;;11.20;99.90;;;;;;5053454;28;19913;-77
2022/03/02 08:49:39;;;;;;;;;;;11.30;99.90;;;;;;5055664;28;20389;-78
2022/03/02 08:52:06;;;;;;;;;;;11.40;99.90;;;;;;5055573;28;19956;-78
2022/03/02 08:54:34;;;;;;;;;;;11.50;99.90;;;;;;5055892;28;19958;-78
2022/03/02 08:57:02;;;;;;;;;;;11.50;99.90;;;;;;5055524;28;19913;-78
2022/03/02 08:59:29;;;;;;;;;;;11.70;99.90;;;;;;5055495;28;19958;-78
2022/03/02 09:01:54;;;;;;;;;;;11.70;99.90;;;;;;5054115;28;19909;-77
2022/03/02 09:04:22;;;;;;;;;;;11.90;99.90;;;;;;5055553;28;20262;-78
2022/03/02 09:06:48;;;;;;;;;;;12.10;99.90;;;;;;5055320;28;19909;-77
2022/03/02 09:09:16;;;;;;;;;;;12.20;99.90;;;;;;5055294;28;19913;-78
2022/03/02 09:11:43;;;;;;;;;;;12.10;99.90;;;;;;5055419;28;20004;-78
2022/03/02 09:14:09;;;;;;;;;;;12.20;99.90;;;;;;5055128;28;19916;-78
2022/03/02 09:16:39;;;;;;;;;;;12.30;99.90;;;;;;5055343;28;19909;-78
2022/03/02 09:19:06;;;;;;;;;;;12.20;99.90;;;;;;5055323;28;19916;-77
2022/03/02 09:21:32;;;;;;;;;;;12.10;99.90;;;;;;5055197;28;19915;-78
2022/03/02 09:23:57;;;;;;;;;;;12.20;99.90;;;;;;5054941;28;19916;-78
2022/03/02 09:26:23;;;;;;;;;;;12.20;99.90;;;;;;5055461;28;19963;-77
2022/03/02 09:28:53;;;;;;;;;;;12.30;99.90;;;;;;5055068;28;19976;-78
2022/03/02 09:31:20;;;;;;;;;;;12.20;99.90;;;;;;5054821;28;19909;-77
2022/03/02 09:33:48;;;;;;;;;;;12.10;99.90;;;;;;5054816;28;20312;-78
2022/03/02 09:36:18;;;;;;;;;;;12.30;99.90;;;;;;5054542;28;19925;-77
2022/03/02 09:38:47;;;;;;;;;;;12.50;99.90;;;;;;5053199;28;19913;-78
2022/03/02 09:41:17;;;;;;;;;;;12.60;99.90;;;;;;5054702;28;19909;-78
2022/03/02 09:43:46;;;;;;;;;;;12.60;99.90;;;;;;5054925;28;19916;-78
2022/03/02 09:46:16;;;;;;;;;;;12.70;99.90;;;;;;5054592;28;19916;-77
2022/03/02 09:48:48;;;;;;;;;;;12.50;99.90;;;;;;5054612;28;19909;-77
2022/03/02 09:51:20;;;;;;;;;;;12.50;99.90;;;;;;5054716;28;20280;-78
2022/03/02 09:53:48;;;;;;;;;;;12.60;99.90;;;;;;5054753;28;19959;-77
2022/03/02 09:56:14;;;;;;;;;;;12.60;99.90;;;;;;5054490;28;20540;-78
2022/03/02 09:58:42;;;;;;;;;;;12.40;99.90;;;;;;5054372;28;19959;-78
2022/03/02 10:01:11;;;;;;;;;;;12.40;99.90;;;;;;5054267;28;19908;-78
2022/03/02 10:03:37;;;;;;;;;;;12.50;99.90;;;;;;5054270;28;20431;-78
2022/03/02 10:06:05;;;;;;;;;;;12.70;99.90;;;;;;5052883;28;20003;-77
2022/03/02 10:08:32;;;;;;;;;;;12.60;99.90;;;;;;5054287;28;19916;-77
2022/03/02 10:11:01;;;;;;;;;;;12.60;99.90;;;;;;5054297;28;19999;-78
2022/03/02 10:13:27;;;;;;;;;;;12.70;99.90;;;;;;5054128;28;19909;-78
2022/03/02 10:15:54;;;;;;;;;;;12.90;99.90;;;;;;5054351;28;19959;-78
2022/03/02 10:18:20;;;;;;;;;;;13.10;99.90;;;;;;5052730;28;19915;-78
2022/03/02 10:20:49;;;;;;;;;;;13.40;99.90;;;;;;5054022;28;19909;-78
2022/03/02 10:23:34;;;;;;;;;;;13.40;99.90;;;;;;5053965;28;19909;-77
2022/03/02 10:26:01;;;;;;;;;;;13.40;99.90;;;;;;5053969;28;19913;-78
2022/03/02 10:28:30;;;;;;;;;;;13.40;99.90;;;;;;5053984;28;19908;-78
2022/03/02 10:31:14;;;;;;;;;;;13.40;99.90;;;;;;5053854;28;19908;-78
2022/03/02 10:33:45;;;;;;;;;;;13.30;99.90;;;;;;5054283;28;19963;-78
2022/03/02 10:36:10;;;;;;;;;;;13.40;99.90;;;;;;5052054;28;19959;-78
2022/03/02 10:38:47;;;;;;;;;;;13.30;99.90;;;;;;5053866;28;20366;-77
2022/03/02 10:41:14;;;;;;;;;;;13.20;99.90;;;;;;5053796;28;19909;-77
2022/03/02 10:43:41;;;;;;;;;;;13.30;99.90;;;;;;5052355;28;19916;-78
2022/03/02 10:46:11;;;;;;;;;;;13.60;99.90;;;;;;5053606;28;19917;-78
2022/03/02 10:48:42;;;;;;;;;;;13.70;99.90;;;;;;5053607;28;19915;-77
2022/03/02 10:51:09;;;;;;;;;;;13.90;99.90;;;;;;5053655;28;19999;-78
2022/03/02 10:53:36;;;;;;;;;;;13.90;99.90;;;;;;5053478;28;20058;-78
2022/03/02 10:56:04;;;;;;;;;;;14.10;99.90;;;;;;5053912;28;19944;-78
2022/03/02 10:58:29;;;;;;;;;;;14.00;99.90;;;;;;5052850;28;19909;-78
2022/03/02 11:00:55;;;;;;;;;;;13.90;99.90;;;;;;5053448;28;19916;-78
2022/03/02 11:03:21;;;;;;;;;;;13.90;99.90;;;;;;5053547;28;19909;-78
2022/03/02 11:05:46;;;;;;;;;;;13.70;99.90;;;;;;5052060;28;19952;-78
2022/03/02 11:08:12;;;;;;;;;;;14.30;99.90;;;;;;5053794;28;19912;-78
2022/03/02 11:10:40;;;;;;;;;;;14.60;99.90;;;;;;5054645;28;19909;-78
2022/03/02 11:13:12;;;;;;;;;;;14.70;99.90;;;;;;5057368;28;19915;-78
2022/03/02 11:15:48;;;;;;;;;;;15.10;99.90;;;;;;5056175;28;19908;-78
2022/03/02 11:18:17;;;;;;;;;;;15.90;99.90;;;;;;5072652;28;19913;-79
2022/03/02 11:20:57;;;;;;;;;;;16.60;99.90;;;;;;5057332;28;20292;-78
2022/03/02 11:23:23;;;;;;;;;;;16.90;99.90;;;;;;5055847;28;20385;-78
2022/03/02 11:25:50;;;;;;;;;;;17.40;99.90;;;;;;5057191;28;19912;-78
2022/03/02 11:28:21;;;;;;;;;;;17.30;99.90;;;;;;5057610;28;19908;-79
2022/03/02 11:31:00;;;;;;;;;;;16.40;99.90;;;;;;5055876;28;19962;-78
2022/03/02 11:33:27;;;;;;;;;;;16.90;99.90;;;;;;5055566;28;19939;-78
2022/03/02 11:35:59;;;;;;;;;;;16.40;99.90;;;;;;5057656;28;19958;-78
2022/03/02 11:38:30;;;;;;;;;;;17.60;99.90;;;;;;5055506;28;19917;-78
2022/03/02 11:40:56;;;;;;;;;;;18.20;99.90;;;;;;5057287;28;19989;-78
2022/03/02 11:43:24;;;;;;;;;;;18.30;99.90;;;;;;5057043;28;19909;-78
2022/03/02 11:45:56;;;;;;;;;;;18.50;99.90;;;;;;5056827;28;19924;-78
2022/03/02 11:48:23;;;;;;;;;;;19.40;99.90;;;;;;5057170;28;20439;-79
2022/03/02 11:51:07;;;;;;;;;;;20.00;99.00;;;;;;5056792;28;19944;-78
2022/03/02 11:53:35;;;;;;;;;;;20.90;96.30;;;;;;5056656;28;19909;-79
2022/03/02 11:56:01;;;;;;;;;;;21.70;95.20;;;;;;5056726;28;19916;-79
2022/03/02 11:58:27;;;;;;;;;;;22.20;93.60;;;;;;5056832;28;19936;-78
2022/03/02 12:01:04;;;;;;;;;;;22.10;92.30;;;;;;5056727;28;19943;-79
2022/03/02 12:03:30;;;;;;;;;;;22.50;91.30;;;;;;5056650;28;19908;-78
2022/03/02 12:06:04;;;;;;;;;;;21.40;92.30;;;;;;5056451;28;19913;-78
2022/03/02 12:08:32;;;;;;;;;;;21.40;93.40;;;;;;5056293;28;19909;-79
2022/03/02 12:11:01;;;;;;;;;;;21.10;93.80;;;;;;5056399;28;19909;-78
2022/03/02 12:13:27;;;;;;;;;;;21.40;93.30;;;;;;5056338;28;19962;-78
2022/03/02 12:15:54;;;;;;;;;;;22.10;92.10;;;;;;5054954;28;20339;-79
2022/03/02 12:18:20;;;;;;;;;;;21.30;92.80;;;;;;5056280;28;19909;-79
2022/03/02 12:20:50;;;;;;;;;;;20.70;93.90;;;;;;5056417;28;19908;-79
2022/03/02 12:23:23;;;;;;;;;;;21.40;92.90;;;;;;5056110;28;20380;-78
2022/03/02 12:25:48;;;;;;;;;;;20.70;93.10;;;;;;5056122;28;19909;-79
2022/03/02 12:28:15;;;;;;;;;;;20.90;95.00;;;;;;5056115;28;20058;-79
2022/03/02 12:30:41;;;;;;;;;;;21.60;93.20;;;;;;5056358;28;19958;-78
2022/03/02 12:33:07;;;;;;;;;;;20.30;95.10;;;;;;5056192;28;19991;-78
2022/03/02 12:35:32;;;;;;;;;;;20.60;94.90;;;;;;5054544;28;20365;-78
2022/03/02 12:38:00;;;;;;;;;;;21.40;93.90;;;;;;5055510;28;19916;-78
2022/03/02 12:40:28;;;;;;;;;;;21.60;92.80;;;;;;5056192;28;20381;-78
2022/03/02 12:42:54;;;;;;;;;;;22.50;92.40;;;;;;5055799;28;19948;-79
2022/03/02 12:45:20;;;;;;;;;;;23.40;91.40;;;;;;5055797;28;20001;-79
2022/03/02 12:47:47;;;;;;;;;;;25.80;88.80;;;;;;5055783;28;20288;-76
2022/03/02 12:50:14;;;;;;;;;;;26.20;82.20;;;;;;5055742;28;19909;-77
2022/03/02 12:52:40;;;;;;;;;;;24.20;83.50;;;;;;5055667;28;19946;-76
2022/03/02 12:55:07;;;;;;;;;;;25.70;81.50;;;;;;5055414;28;19917;-76
2022/03/02 12:57:33;;;;;;;;;;;24.50;82.00;;;;;;5055524;28;19937;-77
2022/03/02 13:00:00;;;;;;;;;;;24.60;83.70;;;;;;5055478;28;19962;-77
2022/03/02 13:02:33;;;;;;;;;;;24.50;83.90;;;;;;5055645;28;19913;-77
2022/03/02 13:05:02;;;;;;;;;;;23.80;83.60;;;;;;5055422;28;19916;-77
2022/03/02 13:07:46;;;;;;;;;;;23.00;85.00;;;;;;5055568;28;19959;-76
2022/03/02 13:10:12;;;;;;;;;;;21.50;89.70;;;;;;5055286;28;19916;-76
2022/03/02 13:12:40;;;;;;;;;;;20.20;92.40;;;;;;5055335;28;19909;-77
2022/03/02 13:15:21;;;;;;;;;;;24.10;90.80;;;;;;5055109;28;20007;-76
2022/03/02 13:18:06;;;;;;;;;;;25.90;83.00;;;;;;5053602;28;19908;-77
2022/03/02 13:20:33;;;;;;;;;;;27.40;78.90;;;;;;5055261;28;20270;-77
2022/03/02 13:23:17;;;;;;;;;;;28.90;76.20;;;;;;5053827;28;19909;-77
2022/03/02 13:25:55;;;;;;;;;;;28.40;69.80;;;;;;5053694;28;19916;-77
2022/03/02 13:28:22;;;;;;;;;;;26.50;69.40;;;;;;5054956;28;20373;-77
2022/03/02 13:31:00;;;;;;;;;;;23.90;74.70;;;;;;5070306;28;19916;-76
2022/03/02 13:33:25;;;;;;;;;;;21.90;81.20;;;;;;5054381;28;19916;-76
2022/03/02 13:35:57;;;;;;;;;;;20.30;87.00;;;;;;5054777;28;20284;-76
2022/03/02 13:38:39;;;;;;;;;;;20.90;89.20;;;;;;5054369;28;19917;-76
2022/03/02 13:41:04;;;;;;;;;;;20.10;89.70;;;;;;5054943;28;19908;-76
2022/03/02 13:43:33;;;;;;;;;;;20.10;90.50;;;;;;5054638;28;19915;-77
2022/03/02 13:45:59;;;;;;;;;;;19.70;91.40;;;;;;5053310;28;19909;-76
2022/03/02 13:48:25;;;;;;;;;;;19.30;92.30;;;;;;5054723;28;20070;-75
2022/03/02 13:51:02;;;;;;;;;;;18.10;94.10;;;;;;5053211;28;19916;-76
2022/03/02 13:53:34;;;;;;;;;;;17.90;95.90;;;;;;5054558;28;19916;-76
2022/03/02 13:56:09;;;;;;;;;;;18.50;96.10;;;;;;5054347;28;20373;-76
2022/03/02 13:58:36;;;;;;;;;;;18.20;96.50;;;;;;5054783;28;19932;-76
2022/03/02 14:01:15;;;;;;;;;;;18.20;97.30;;;;;;5054468;28;19956;-75
2022/03/02 14:03:45;;;;;;;;;;;17.90;97.60;;;;;;5054319;28;19909;-76
2022/03/02 14:06:17;;;;;;;;;;;17.20;98.80;;;;;;5054289;28;19932;-75
2022/03/02 14:08:50;;;;;;;;;;;16.80;99.80;;;;;;5052691;28;19909;-76
2022/03/02 14:11:31;;;;;;;;;;;17.00;99.90;;;;;;5054155;28;19916;-76
2022/03/02 14:13:56;;;;;;;;;;;17.00;99.90;;;;;;5054009;28;19936;-76
2022/03/02 14:16:22;;;;;;;;;;;16.70;99.90;;;;;;5054024;28;19909;-76